This is the latest recevied weather packets stored in our database for station/object SM6VFJ-1. If no packets are shown the sender has not sent any weather packets the latest 10 day(s).
| Time | Temp. | Humidity | Pressure | Rain* | Wind** | Luminosity | Snow |
|---|---|---|---|---|---|---|---|
| 1777508136 | 7.78° C | 67% | 1028.6 hPa | 0 mm | - | 0 W/m² | - |
| 1777504527 | 8.33° C | 67% | 1029 hPa | 0 mm | - | 0 W/m² | - |
| 1777494611 | 10.56° C | 64% | 1028.4 hPa | 0 mm | - | 0 W/m² | - |
| 1777493711 | 10.56° C | 65% | 1028.4 hPa | 0 mm | - | 0 W/m² | - |
| 1777492827 | 10° C | 66% | 1028.4 hPa | 0 mm | - | 0 W/m² | - |
| 1777491910 | 9.44° C | 68% | 1028.4 hPa | 0 mm | - | 0 W/m² | - |
| 1777477501 | 12.78° C | 57% | 1028.5 hPa | 0 mm | - | 104 W/m² | - |
| 1777473969 | 12.78° C | 52% | 1029.1 hPa | 0 mm | - | 285 W/m² | - |
| 1777468556 | 12.78° C | 49% | 1029.6 hPa | 0 mm | - | 443 W/m² | - |
| 1777466751 | 13.33° C | 48% | 1029.6 hPa | 0 mm | - | 485 W/m² | - |
| 1777462243 | 12.78° C | 44% | 1029.7 hPa | 0 mm | - | 657 W/m² | - |
| 1777450515 | 8.89° C | 62% | 1030.2 hPa | 0 mm | - | 536 W/m² | - |
| 1777448707 | 7.78° C | 69% | 1030.1 hPa | 0 mm | - | 503 W/m² | - |
| 1777446061 | 6.11° C | 74% | 1030 hPa | 0 mm | - | 411 W/m² | - |
| 1777444257 | 5.56° C | 77% | 1030 hPa | 0 mm | - | 339 W/m² | - |
| 1777441538 | 4.44° C | 77% | 1029.9 hPa | 0 mm | - | 207 W/m² | - |
| 1777439728 | 3.33° C | 77% | 1029.8 hPa | 0 mm | - | 134 W/m² | - |
| 1777436118 | 1.67° C | 80% | 1029.4 hPa | 0 mm | - | 47 W/m² | - |
| 1777431608 | 1.11° C | 77% | 1028.8 hPa | 0 mm | - | 0 W/m² | - |
| 1777430705 | 1.67° C | 75% | 1028.8 hPa | 0 mm | - | 0 W/m² | - |
| 1777426253 | 2.78° C | 66% | 1028.4 hPa | 0 mm | - | 0 W/m² | - |
| 1777423547 | 3.33° C | 59% | 1028.6 hPa | 0 mm | - | 0 W/m² | - |
| 1777419036 | 5° C | 53% | 1028.8 hPa | 0 mm | - | 0 W/m² | - |
| 1777412735 | 5.56° C | 49% | 1028.5 hPa | 0 mm | - | 0 W/m² | - |
| 1777406420 | 4.44° C | 56% | 1028.3 hPa | 0 mm | - | 0 W/m² | - |
* Rain latest hour (hover to see other rain measurements)
** Current wind speed in m/s (hover to see current wind gust speed)